Time;durP1;ratioP1;P1;durP2;ratioP2;P2;SDS_P1;SDS_P2;PMS_P1;PMS_P2;Temp;Humidity;BMP_temperature;BMP_pressure;BME280_temperature;BME280_humidity;BME280_pressure;Samples;Min_cycle;Max_cycle;Signal;HPM_P1;HPM_P2
2023/12/21 00:01:43;;;;;;;1158.95;948.78;;;9.20;99.90;;;;;;5073639;28;20032;-81
2023/12/21 00:04:09;;;;;;;1152.57;968.25;;;9.10;99.90;;;;;;5057375;28;20044;-81
2023/12/21 00:06:35;;;;;;;1154.93;955.75;;;9.50;99.90;;;;;;5057371;28;20033;-81
2023/12/21 00:09:00;;;;;;;1041.13;927.33;;;9.30;99.90;;;;;;5057986;28;20063;-80
2023/12/21 00:11:26;;;;;;;1213.22;957.78;;;9.10;99.90;;;;;;5057335;28;20039;-80
2023/12/21 00:13:52;;;;;;;1154.72;949.03;;;9.10;99.90;;;;;;5063725;28;20096;-80
2023/12/21 00:16:18;;;;;;;1184.10;959.17;;;9.10;99.90;;;;;;5067253;28;20036;-80
2023/12/21 00:18:43;;;;;;;1182.53;957.70;;;9.30;99.90;;;;;;5082158;28;20055;-81
2023/12/21 00:21:09;;;;;;;1177.22;969.25;;;9.10;99.90;;;;;;5067778;28;20036;-81
2023/12/21 00:23:35;;;;;;;1146.53;946.03;;;9.60;99.90;;;;;;5057313;28;20040;-81
2023/12/21 00:26:01;;;;;;;1192.47;958.28;;;9.10;99.90;;;;;;5055928;28;20505;-81
2023/12/21 00:28:26;;;;;;;1124.28;941.17;;;9.10;99.90;;;;;;5050908;28;20044;-81
2023/12/21 00:30:52;;;;;;;1214.60;965.38;;;9.10;99.90;;;;;;5072192;28;20097;-81
2023/12/21 00:33:18;;;;;;;1067.93;945.00;;;9.10;99.90;;;;;;5054714;28;20028;-81
2023/12/21 00:35:43;;;;;;;1204.50;958.08;;;9.10;99.90;;;;;;5055537;28;20032;-81
2023/12/21 00:38:09;;;;;;;1140.50;933.65;;;9.10;99.90;;;;;;5072305;28;20496;-81
2023/12/21 00:40:34;;;;;;;1179.22;951.88;;;9.10;99.90;;;;;;5071896;28;20086;-81
2023/12/21 00:43:00;;;;;;;1168.25;956.78;;;9.10;99.90;;;;;;5050279;28;20036;-81
2023/12/21 00:45:26;;;;;;;1238.75;958.70;;;9.10;99.90;;;;;;5054420;28;20070;-80
2023/12/21 00:47:52;;;;;;;1116.90;944.38;;;9.10;99.90;;;;;;5071375;28;20463;-80
2023/12/21 00:50:17;;;;;;;1173.05;954.08;;;9.80;99.90;;;;;;5071124;28;20040;-80
2023/12/21 00:52:43;;;;;;;1187.53;955.20;;;9.20;99.90;;;;;;5054463;28;20046;-80
2023/12/21 00:55:09;;;;;;;1077.95;928.20;;;9.40;99.90;;;;;;5071472;28;20036;-80
2023/12/21 00:57:34;;;;;;;1098.40;930.88;;;9.20;99.90;;;;;;5070174;28;20536;-80
2023/12/21 01:00:00;;;;;;;1107.50;940.80;;;9.20;99.90;;;;;;5071137;28;20043;-80
2023/12/21 01:02:26;;;;;;;1059.50;916.92;;;9.20;99.90;;;;;;5054247;28;20584;-80
2023/12/21 01:04:51;;;;;;;1073.57;935.40;;;9.20;99.90;;;;;;5070371;28;20049;-80
2023/12/21 01:07:17;;;;;;;1127.10;939.42;;;9.20;99.90;;;;;;5054404;28;20116;-80
2023/12/21 01:09:43;;;;;;;1162.57;947.38;;;9.20;99.90;;;;;;5054275;28;20032;-80
2023/12/21 01:12:08;;;;;;;1124.85;950.38;;;9.20;99.90;;;;;;5054468;28;20032;-80
2023/12/21 01:14:34;;;;;;;1111.97;951.13;;;9.20;99.90;;;;;;5053620;28;20451;-80
2023/12/21 01:17:00;;;;;;;1245.53;978.55;;;9.20;99.90;;;;;;5070814;28;20052;-80
2023/12/21 01:19:26;;;;;;;1461.25;998.78;;;9.20;99.90;;;;;;5053341;28;20500;-80
2023/12/21 01:21:52;;;;;;;1314.38;998.92;;;9.20;99.90;;;;;;5070951;28;20036;-80
2023/12/21 01:24:18;;;;;;;1301.43;992.30;;;9.20;99.90;;;;;;5053961;28;20059;-80
2023/12/21 01:26:43;;;;;;;1164.53;942.08;;;9.70;99.90;;;;;;5070689;28;20535;-80
2023/12/21 01:29:09;;;;;;;1997.88;999.90;;;9.20;99.90;;;;;;5054019;28;20075;-80
2023/12/21 01:31:34;;;;;;;1219.28;977.20;;;9.20;99.90;;;;;;5070037;28;20134;-80
2023/12/21 01:34:01;;;;;;;1171.15;951.50;;;9.20;99.90;;;;;;5070752;28;20040;-80
2023/12/21 01:36:28;;;;;;;1267.43;969.85;;;9.20;99.90;;;;;;5071158;28;20392;-80
2023/12/21 01:38:54;;;;;;;1120.30;949.53;;;9.20;99.90;;;;;;5071015;28;20053;-80
2023/12/21 01:41:19;;;;;;;1270.78;972.53;;;9.30;99.90;;;;;;5070976;28;20043;-80
2023/12/21 01:43:45;;;;;;;1178.30;949.63;;;9.10;99.90;;;;;;5054906;28;20083;-80
2023/12/21 01:46:11;;;;;;;1132.50;941.15;;;9.10;99.90;;;;;;5054909;28;20087;-80
2023/12/21 01:48:37;;;;;;;1103.85;949.20;;;9.10;99.90;;;;;;5070784;28;20029;-80
2023/12/21 01:51:04;;;;;;;1161.95;955.47;;;9.70;99.90;;;;;;5071245;28;20040;-80
2023/12/21 01:53:32;;;;;;;1160.00;951.03;;;9.20;99.90;;;;;;5070432;28;20029;-80
2023/12/21 01:55:58;;;;;;;1234.30;967.55;;;9.70;99.90;;;;;;5071269;28;20036;-80
2023/12/21 01:58:24;;;;;;;1306.82;985.53;;;9.20;99.90;;;;;;5055374;28;20077;-80
2023/12/21 02:00:50;;;;;;;1167.35;956.60;;;9.60;99.90;;;;;;5054955;28;20032;-80
2023/12/21 02:03:16;;;;;;;1162.20;953.67;;;9.20;99.90;;;;;;5055469;28;20047;-80
2023/12/21 02:05:42;;;;;;;1297.15;984.33;;;9.20;99.90;;;;;;5055117;28;20448;-80
2023/12/21 02:08:08;;;;;;;1270.95;984.95;;;9.70;99.90;;;;;;5071491;28;20051;-80
2023/12/21 02:10:35;;;;;;;1201.05;974.95;;;9.20;99.90;;;;;;5074880;28;20063;-80
2023/12/21 02:13:00;;;;;;;1255.32;981.13;;;9.20;99.90;;;;;;5075916;28;20040;-80
2023/12/21 02:15:26;;;;;;;1069.93;925.38;;;9.20;99.90;;;;;;5059501;28;20090;-80
2023/12/21 02:17:54;;;;;;;1142.60;952.53;;;9.20;99.90;;;;;;5062429;28;20052;-80
2023/12/21 02:20:20;;;;;;;1150.78;957.10;;;9.10;99.90;;;;;;5088199;28;20067;-80
2023/12/21 02:22:47;;;;;;;1238.55;970.15;;;9.20;99.90;;;;;;5064422;28;20054;-80
2023/12/21 02:25:14;;;;;;;1225.18;973.28;;;9.20;99.90;;;;;;5089022;28;20048;-80
2023/12/21 02:27:39;;;;;;;1207.28;966.78;;;9.20;99.90;;;;;;5058870;28;20124;-80
2023/12/21 02:30:05;;;;;;;1114.63;948.17;;;9.10;99.90;;;;;;5057525;28;20075;-80
2023/12/21 02:32:31;;;;;;;1187.32;960.28;;;9.20;99.90;;;;;;5073034;28;20041;-80
2023/12/21 02:34:57;;;;;;;1111.15;939.83;;;9.50;99.90;;;;;;5057645;28;20120;-80
2023/12/21 02:37:23;;;;;;;1194.15;959.67;;;9.20;99.90;;;;;;5056560;28;20529;-80
2023/12/21 02:39:48;;;;;;;1146.10;947.17;;;9.20;99.90;;;;;;5057449;28;20064;-80
2023/12/21 02:42:14;;;;;;;1088.63;923.67;;;9.20;99.90;;;;;;5056757;28;20042;-80
2023/12/21 02:44:39;;;;;;;1172.20;946.13;;;9.40;99.90;;;;;;5057332;28;20050;-80
2023/12/21 02:47:05;;;;;;;1084.22;922.35;;;8.90;99.90;;;;;;5057500;28;20047;-80
2023/12/21 02:49:31;;;;;;;1167.80;964.22;;;9.20;99.90;;;;;;5056854;28;20040;-80
2023/12/21 02:51:56;;;;;;;1164.68;949.13;;;9.50;99.90;;;;;;5073709;28;20500;-81
2023/12/21 02:54:22;;;;;;;1229.60;968.38;;;9.20;99.90;;;;;;5073057;28;20029;-81
2023/12/21 02:56:47;;;;;;;1188.15;959.33;;;9.20;99.90;;;;;;5057266;28;20029;-80
2023/12/21 02:59:13;;;;;;;1085.78;923.67;;;9.40;99.90;;;;;;5056615;28;20484;-80
2023/12/21 03:01:42;;;;;;;1216.10;974.58;;;9.20;99.90;;;;;;5056725;28;20032;-80
2023/12/21 03:04:12;;;;;;;1146.75;942.95;;;9.20;99.90;;;;;;5073473;28;20082;-80
2023/12/21 03:06:38;;;;;;;1185.80;949.42;;;9.20;99.90;;;;;;5073072;28;20552;-80
2023/12/21 03:09:03;;;;;;;1152.57;961.38;;;9.10;99.90;;;;;;5056982;28;20039;-80
2023/12/21 03:11:29;;;;;;;1106.60;932.10;;;9.20;99.90;;;;;;5056555;28;20671;-80
2023/12/21 03:13:55;;;;;;;1287.43;977.33;;;9.70;99.90;;;;;;5072985;28;20032;-80
2023/12/21 03:16:20;;;;;;;1156.35;963.33;;;9.20;99.90;;;;;;5073328;28;20032;-80
2023/12/21 03:18:46;;;;;;;1227.60;969.38;;;9.20;99.90;;;;;;5056097;28;20040;-80
2023/12/21 03:21:14;;;;;;;1229.78;967.58;;;9.20;99.90;;;;;;5072034;28;20036;-80
2023/12/21 03:23:40;;;;;;;1194.35;962.08;;;9.20;99.90;;;;;;5072977;28;20115;-80
2023/12/21 03:26:08;;;;;;;1193.35;968.70;;;9.20;99.90;;;;;;5052156;28;20562;-80
2023/12/21 03:28:33;;;;;;;1263.85;977.50;;;9.20;99.90;;;;;;5072441;28;20415;-80
2023/12/21 03:31:05;;;;;;;1169.15;955.53;;;9.20;99.90;;;;;;5056507;28;20036;-81
2023/12/21 03:33:31;;;;;;;1175.38;950.75;;;9.20;99.90;;;;;;5056519;28;20417;-81
2023/12/21 03:35:57;;;;;;;1292.10;965.50;;;9.20;99.90;;;;;;5056306;28;20033;-81
2023/12/21 03:38:22;;;;;;;1325.93;986.03;;;9.20;99.90;;;;;;5055641;28;20097;-81
2023/12/21 03:40:48;;;;;;;1170.20;968.97;;;9.20;99.90;;;;;;5069667;28;20051;-81
2023/12/21 03:43:13;;;;;;;1166.85;966.20;;;9.90;99.90;;;;;;5073322;28;20028;-80
2023/12/21 03:45:40;;;;;;;1232.93;981.17;;;9.20;99.90;;;;;;5052688;28;20500;-81
2023/12/21 03:48:09;;;;;;;1174.38;967.50;;;9.90;99.90;;;;;;5056095;28;20078;-81
2023/12/21 03:50:35;;;;;;;1185.47;963.58;;;9.20;99.90;;;;;;5055915;28;20121;-81
2023/12/21 03:53:01;;;;;;;1195.45;965.45;;;9.20;99.90;;;;;;5056376;28;20056;-81
2023/12/21 03:55:26;;;;;;;1188.53;960.50;;;9.20;99.90;;;;;;5056023;28;20041;-81
2023/12/21 03:57:52;;;;;;;1313.25;977.50;;;9.40;99.90;;;;;;5055538;28;20123;-81
2023/12/21 04:00:18;;;;;;;1255.13;985.42;;;9.20;99.90;;;;;;5056344;28;20043;-81
2023/12/21 04:02:48;;;;;;;1194.70;961.58;;;9.20;99.90;;;;;;5056121;28;20040;-81
2023/12/21 04:05:13;;;;;;;1228.97;972.97;;;9.20;99.90;;;;;;5072785;28;20036;-81
2023/12/21 04:07:39;;;;;;;1309.40;989.47;;;9.20;99.90;;;;;;5056066;28;20038;-80
2023/12/21 04:10:05;;;;;;;1031.90;920.47;;;9.20;99.90;;;;;;5073815;28;20038;-80
2023/12/21 04:12:31;;;;;;;1275.90;981.40;;;9.20;99.90;;;;;;5056600;28;20043;-80
2023/12/21 04:14:56;;;;;;;1272.68;987.55;;;9.20;99.90;;;;;;5056985;28;20045;-81
2023/12/21 04:17:22;;;;;;;1304.63;985.00;;;9.20;99.90;;;;;;5056875;28;20051;-81
2023/12/21 04:19:47;;;;;;;1223.95;975.03;;;9.20;99.90;;;;;;5074272;28;20038;-81
2023/12/21 04:22:13;;;;;;;1234.47;983.38;;;9.20;99.90;;;;;;5062188;28;20044;-81
2023/12/21 04:24:40;;;;;;;1263.68;996.13;;;9.20;99.90;;;;;;5081889;28;20123;-81
2023/12/21 04:27:06;;;;;;;1269.93;981.83;;;9.20;99.90;;;;;;5082464;28;20087;-81
2023/12/21 04:29:31;;;;;;;1144.38;950.38;;;9.80;99.90;;;;;;5066144;28;20040;-81
2023/12/21 04:31:57;;;;;;;1096.63;942.30;;;9.30;99.90;;;;;;5056790;28;20044;-80
2023/12/21 04:34:22;;;;;;;1273.53;970.05;;;9.20;99.90;;;;;;5071390;28;20028;-80
2023/12/21 04:36:48;;;;;;;1155.20;967.92;;;9.70;99.90;;;;;;5071524;28;20488;-81
2023/12/21 04:39:13;;;;;;;1272.00;981.60;;;9.60;99.90;;;;;;5071191;28;20068;-80
2023/12/21 04:41:39;;;;;;;1135.82;958.17;;;9.20;99.90;;;;;;5071508;28;20032;-80
2023/12/21 04:44:05;;;;;;;1155.22;958.85;;;9.20;99.90;;;;;;5054802;28;20075;-80
2023/12/21 04:46:31;;;;;;;1217.93;973.45;;;9.20;99.90;;;;;;5055271;28;20058;-80
2023/12/21 04:48:57;;;;;;;1180.18;959.53;;;9.20;99.90;;;;;;5054807;28;20544;-81
2023/12/21 04:51:22;;;;;;;1115.75;931.08;;;9.20;99.90;;;;;;5054679;28;20139;-81
2023/12/21 04:53:48;;;;;;;1274.38;984.33;;;9.70;99.90;;;;;;5054404;28;20041;-80
2023/12/21 04:56:14;;;;;;;1224.45;970.60;;;9.30;99.90;;;;;;5070839;28;20043;-81
2023/12/21 04:58:40;;;;;;;1185.70;961.78;;;9.20;99.90;;;;;;5071521;28;20505;-80
2023/12/21 05:01:06;;;;;;;1070.53;932.67;;;9.20;99.90;;;;;;5067091;28;20040;-81
2023/12/21 05:03:32;;;;;;;1234.32;975.95;;;9.20;99.90;;;;;;5054118;28;20401;-81
2023/12/21 05:05:57;;;;;;;1062.47;919.45;;;9.20;99.90;;;;;;5071462;28;20041;-81
2023/12/21 05:08:23;;;;;;;1052.30;929.95;;;9.90;99.90;;;;;;5053791;28;20039;-81
2023/12/21 05:10:49;;;;;;;1107.22;935.67;;;9.20;99.90;;;;;;5054526;28;20029;-80
2023/12/21 05:13:14;;;;;;;1108.72;929.22;;;9.20;99.90;;;;;;5064905;28;20500;-80
2023/12/21 05:15:40;;;;;;;1230.22;966.67;;;9.70;99.90;;;;;;5053144;28;20032;-80
2023/12/21 05:18:06;;;;;;;1304.50;989.30;;;9.20;99.90;;;;;;5070579;28;20041;-80
2023/12/21 05:20:31;;;;;;;1142.70;959.00;;;9.30;99.90;;;;;;5053410;28;20036;-80
2023/12/21 05:22:57;;;;;;;1241.60;978.85;;;9.60;99.90;;;;;;5053707;28;20044;-80
2023/12/21 05:25:24;;;;;;;1586.78;999.90;;;9.30;99.90;;;;;;5070753;28;20417;-80
2023/12/21 05:27:49;;;;;;;1226.65;966.22;;;9.30;99.90;;;;;;5053328;28;20048;-80
2023/12/21 05:30:18;;;;;;;1245.82;979.50;;;9.30;99.90;;;;;;5053338;28;20036;-80
2023/12/21 05:32:44;;;;;;;1166.07;951.42;;;9.30;99.90;;;;;;5070670;28;20032;-80
2023/12/21 05:35:09;;;;;;;1222.68;950.47;;;9.90;99.90;;;;;;5071020;28;20062;-80
2023/12/21 05:37:36;;;;;;;1223.57;981.50;;;9.20;99.90;;;;;;5071052;28;20702;-80
2023/12/21 05:40:02;;;;;;;1194.18;956.58;;;9.30;99.90;;;;;;5070551;28;20049;-80
2023/12/21 05:42:28;;;;;;;1282.97;965.95;;;9.30;99.90;;;;;;5053665;28;20400;-80
2023/12/21 05:44:54;;;;;;;1238.82;990.92;;;9.30;99.90;;;;;;5056798;28;20060;-80
2023/12/21 05:47:19;;;;;;;1175.32;958.38;;;9.90;99.90;;;;;;5074247;28;20060;-80
2023/12/21 05:49:45;;;;;;;1060.13;928.55;;;9.30;99.90;;;;;;5074075;28;20036;-80
2023/12/21 05:52:14;;;;;;;1198.55;949.70;;;10.10;99.90;;;;;;5075505;28;20542;-80
2023/12/21 05:54:39;;;;;;;1169.75;964.90;;;10.10;99.90;;;;;;5057690;28;20047;-80
2023/12/21 05:57:05;;;;;;;1126.43;940.85;;;9.30;99.90;;;;;;5058189;28;20044;-80
2023/12/21 05:59:31;;;;;;;1246.40;978.50;;;9.30;99.90;;;;;;5058097;28;20036;-80
2023/12/21 06:01:56;;;;;;;1583.80;947.17;;;9.30;99.90;;;;;;5058086;28;20412;-80
2023/12/21 06:04:22;;;;;;;1181.85;954.85;;;9.30;99.90;;;;;;5058476;28;20029;-80
2023/12/21 06:06:48;;;;;;;1259.45;975.55;;;9.70;99.90;;;;;;5058697;28;20040;-80
2023/12/21 06:09:14;;;;;;;1050.32;930.50;;;9.30;99.90;;;;;;5071638;28;20493;-80
2023/12/21 06:11:40;;;;;;;1104.20;957.75;;;9.30;99.90;;;;;;5058283;28;20044;-80
2023/12/21 06:14:06;;;;;;;1185.18;964.30;;;9.30;99.90;;;;;;5059269;28;20386;-80
2023/12/21 06:16:32;;;;;;;1199.20;963.45;;;9.60;99.90;;;;;;5074923;28;20036;-80
2023/12/21 06:18:59;;;;;;;1058.10;927.72;;;9.30;99.90;;;;;;5075930;28;20040;-80
2023/12/21 06:21:28;;;;;;;1200.78;969.60;;;9.30;99.90;;;;;;5059430;28;20044;-80
2023/12/21 06:23:54;;;;;;;1089.65;936.75;;;9.60;99.90;;;;;;5077424;28;20443;-80
2023/12/21 06:26:19;;;;;;;1164.32;951.22;;;9.30;99.90;;;;;;5071295;28;20084;-80
2023/12/21 06:28:45;;;;;;;1116.32;941.63;;;9.60;99.90;;;;;;5062560;28;20654;-80
2023/12/21 06:31:16;;;;;;;1088.47;917.63;;;9.30;99.90;;;;;;5090886;28;20053;-80
2023/12/21 06:33:42;;;;;;;1136.20;968.50;;;9.50;99.90;;;;;;5065795;28;20485;-80
2023/12/21 06:36:08;;;;;;;1074.90;945.70;;;9.20;99.90;;;;;;5063733;28;20094;-80
2023/12/21 06:38:33;;;;;;;1053.93;937.83;;;9.20;99.90;;;;;;5063258;28;20119;-80
2023/12/21 06:40:59;;;;;;;1083.60;936.00;;;9.30;99.90;;;;;;5063612;28;20050;-80
2023/12/21 06:43:26;;;;;;;1661.32;990.22;;;9.70;99.90;;;;;;5063465;28;20570;-80
2023/12/21 06:45:55;;;;;;;1141.72;948.47;;;9.40;99.90;;;;;;5063472;28;20033;-80
2023/12/21 06:48:21;;;;;;;1076.57;929.33;;;9.20;99.90;;;;;;5080128;28;20570;-80
2023/12/21 06:50:47;;;;;;;1099.57;939.65;;;10.20;99.90;;;;;;5064227;28;20075;-80
2023/12/21 06:53:15;;;;;;;1187.28;964.90;;;9.30;99.90;;;;;;5080482;28;20032;-81
2023/12/21 06:55:42;;;;;;;1180.93;958.22;;;9.70;99.90;;;;;;5064970;28;20491;-80
2023/12/21 06:58:08;;;;;;;1107.22;950.53;;;9.30;99.90;;;;;;5065039;28;20108;-80
2023/12/21 07:00:33;;;;;;;1029.93;910.67;;;9.60;99.90;;;;;;5064435;28;20064;-80
2023/12/21 07:03:00;;;;;;;1015.88;906.83;;;9.70;99.90;;;;;;5063658;28;20032;-80
2023/12/21 07:05:26;;;;;;;1202.90;964.53;;;9.40;99.90;;;;;;5063587;28;20036;-80
2023/12/21 07:07:53;;;;;;;1193.28;945.53;;;9.30;99.90;;;;;;5062789;28;20471;-80
2023/12/21 07:10:20;;;;;;;1217.20;962.33;;;10.00;99.90;;;;;;5079984;28;20397;-79
2023/12/21 07:12:46;;;;;;;1237.55;989.42;;;9.90;99.90;;;;;;5062875;28;20036;-80
2023/12/21 07:15:12;;;;;;;1123.65;942.83;;;9.40;99.90;;;;;;5063249;28;20032;-80
2023/12/21 07:17:38;;;;;;;1140.90;957.15;;;9.40;99.90;;;;;;5062787;28;20063;-80
2023/12/21 07:20:04;;;;;;;1101.18;934.10;;;9.70;99.90;;;;;;5063231;28;20066;-80
2023/12/21 07:22:30;;;;;;;1150.05;938.20;;;9.40;99.90;;;;;;5063779;28;20040;-80
2023/12/21 07:24:56;;;;;;;1098.03;935.83;;;10.00;99.90;;;;;;5062778;28;20061;-80
2023/12/21 07:27:21;;;;;;;1344.30;968.83;;;9.90;99.90;;;;;;5063020;28;20108;-80
2023/12/21 07:29:49;;;;;;;1258.97;982.70;;;9.40;99.90;;;;;;5064000;28;20075;-80
2023/12/21 07:32:15;;;;;;;1126.93;955.20;;;9.90;99.90;;;;;;5079902;28;20039;-80
2023/12/21 07:34:41;;;;;;;1211.00;965.90;;;10.10;99.90;;;;;;5063378;28;20040;-80
2023/12/21 07:37:08;;;;;;;1119.57;952.92;;;9.40;99.90;;;;;;5062935;28;20480;-80
2023/12/21 07:39:34;;;;;;;1152.75;942.08;;;9.40;99.90;;;;;;5079765;28;20071;-80
2023/12/21 07:42:00;;;;;;;1030.40;922.28;;;9.40;99.90;;;;;;5063354;28;20037;-80
2023/12/21 07:44:26;;;;;;;1201.90;972.67;;;9.50;99.90;;;;;;5080438;28;20037;-80
2023/12/21 07:46:52;;;;;;;1406.75;993.80;;;9.40;99.90;;;;;;5064363;28;20028;-80
2023/12/21 07:49:18;;;;;;;1187.22;966.88;;;10.10;99.90;;;;;;5064373;28;20096;-81
2023/12/21 07:51:44;;;;;;;1305.32;991.25;;;9.40;99.90;;;;;;5064068;28;20096;-80
2023/12/21 07:54:09;;;;;;;1565.63;986.00;;;9.60;99.90;;;;;;5080575;28;20099;-80
2023/12/21 07:56:35;;;;;;;1154.43;955.50;;;10.30;99.90;;;;;;5062573;28;20043;-80
2023/12/21 07:59:04;;;;;;;1193.97;963.65;;;10.20;99.90;;;;;;5063095;28;20070;-81
2023/12/21 08:01:31;;;;;;;1243.13;976.60;;;9.50;99.90;;;;;;5063217;28;20100;-80
2023/12/21 08:03:57;;;;;;;1220.75;984.35;;;9.50;99.90;;;;;;5062801;28;20063;-80
2023/12/21 08:06:23;;;;;;;1138.85;962.78;;;10.30;99.90;;;;;;5062968;28;20067;-81
2023/12/21 08:08:52;;;;;;;1229.57;976.55;;;9.50;99.90;;;;;;5079693;28;20549;-81
2023/12/21 08:11:21;;;;;;;1163.63;971.20;;;9.40;99.90;;;;;;5080482;28;20062;-80
2023/12/21 08:13:48;;;;;;;1081.03;945.95;;;9.40;99.90;;;;;;5071502;28;20442;-81
2023/12/21 08:16:14;;;;;;;1257.15;993.28;;;10.10;99.90;;;;;;5063105;28;20058;-80
2023/12/21 08:18:40;;;;;;;1342.97;992.95;;;9.60;99.90;;;;;;5062767;28;20055;-80
2023/12/21 08:21:06;;;;;;;1287.93;973.78;;;9.30;99.90;;;;;;5079962;28;20126;-81
2023/12/21 08:23:32;;;;;;;1279.70;984.88;;;10.20;99.90;;;;;;5063312;28;20056;-80
2023/12/21 08:25:57;;;;;;;1249.60;983.22;;;10.20;99.90;;;;;;5063866;28;20078;-80
2023/12/21 08:28:25;;;;;;;1533.80;983.65;;;10.10;99.90;;;;;;5070221;28;20036;-80
2023/12/21 08:30:53;;;;;;;1348.22;989.90;;;9.70;99.90;;;;;;5066543;28;20055;-80
2023/12/21 08:33:19;;;;;;;1322.03;997.20;;;9.40;99.90;;;;;;5085274;28;20063;-80
2023/12/21 08:35:45;;;;;;;1327.70;999.90;;;9.40;99.90;;;;;;5064450;28;20040;-80
2023/12/21 08:38:11;;;;;;;1127.22;955.55;;;9.50;99.90;;;;;;5063378;28;20041;-80
2023/12/21 08:40:37;;;;;;;1387.10;992.58;;;10.30;99.90;;;;;;5079761;28;20079;-80
2023/12/21 08:43:02;;;;;;;1700.35;999.90;;;10.00;99.90;;;;;;5062936;28;20048;-80
2023/12/21 08:45:28;;;;;;;1468.90;999.90;;;9.60;99.90;;;;;;5062009;28;20044;-80
2023/12/21 08:47:54;;;;;;;1432.15;999.90;;;9.60;99.90;;;;;;5061593;28;20036;-80
2023/12/21 08:50:20;;;;;;;1346.93;991.80;;;9.70;99.90;;;;;;5061587;28;20067;-80
2023/12/21 08:52:45;;;;;;;1278.10;987.08;;;9.70;99.90;;;;;;5079197;28;20033;-80
2023/12/21 08:55:11;;;;;;;1404.78;999.15;;;9.70;99.90;;;;;;5061853;28;20047;-80
2023/12/21 08:57:37;;;;;;;1424.80;999.90;;;9.70;99.90;;;;;;5061972;28;20051;-80
2023/12/21 09:00:05;;;;;;;1450.15;999.90;;;9.70;99.90;;;;;;5062454;28;20068;-81
2023/12/21 09:02:33;;;;;;;1323.38;983.38;;;9.70;99.90;;;;;;5062053;28;20036;-80
2023/12/21 09:04:59;;;;;;;1178.07;953.53;;;9.70;99.90;;;;;;5078711;28;20033;-81
2023/12/21 09:07:24;;;;;;;1272.18;962.83;;;9.70;99.90;;;;;;5061799;28;20044;-81
2023/12/21 09:09:51;;;;;;;1454.40;977.35;;;10.10;99.90;;;;;;5061939;28;20055;-80
2023/12/21 09:12:18;;;;;;;1226.30;971.38;;;9.90;99.90;;;;;;5062485;28;20062;-81
2023/12/21 09:14:45;;;;;;;1622.47;994.20;;;9.60;99.90;;;;;;5078249;28;20093;-81
2023/12/21 09:17:10;;;;;;;1197.25;970.72;;;9.70;99.90;;;;;;5062154;28;20119;-81
2023/12/21 09:19:36;;;;;;;1178.18;974.88;;;10.30;99.90;;;;;;5081223;28;20068;-81
2023/12/21 09:22:02;;;;;;;1061.65;931.28;;;10.60;99.90;;;;;;5083390;28;20046;-81
2023/12/21 09:24:27;;;;;;;1136.65;965.58;;;9.60;99.90;;;;;;5066611;28;20054;-81
2023/12/21 09:26:53;;;;;;;1313.43;980.55;;;9.40;99.90;;;;;;5082951;28;20063;-81
2023/12/21 09:29:19;;;;;;;1253.03;984.60;;;10.00;99.90;;;;;;5082475;28;20083;-81
2023/12/21 09:31:44;;;;;;;1117.05;945.13;;;10.40;99.90;;;;;;5066670;28;20040;-81
2023/12/21 09:34:11;;;;;;;1258.22;974.28;;;10.00;99.90;;;;;;5066262;28;20033;-80
2023/12/21 09:36:36;;;;;;;1523.28;989.42;;;9.70;99.90;;;;;;5082937;28;20041;-80
2023/12/21 09:39:03;;;;;;;1537.82;999.90;;;9.90;99.90;;;;;;5065540;28;20041;-80
2023/12/21 09:41:29;;;;;;;1434.15;999.67;;;9.80;99.90;;;;;;5081537;28;20070;-80
2023/12/21 09:43:57;;;;;;;1315.35;957.42;;;10.00;99.90;;;;;;5083726;28;20055;-81
2023/12/21 09:46:25;;;;;;;1435.75;998.78;;;9.90;99.90;;;;;;5082643;28;20067;-81
2023/12/21 09:48:53;;;;;;;1531.65;999.90;;;9.90;99.90;;;;;;5065752;28;20170;-81
2023/12/21 09:51:20;;;;;;;1585.15;993.45;;;9.90;99.90;;;;;;5082476;28;20044;-81
2023/12/21 09:53:46;;;;;;;1296.57;983.45;;;9.90;99.90;;;;;;5066110;28;20032;-81
2023/12/21 09:56:14;;;;;;;1310.03;983.35;;;10.10;99.90;;;;;;5065670;28;20048;-81
2023/12/21 09:58:41;;;;;;;1261.53;974.58;;;9.90;99.90;;;;;;5062287;28;20040;-81
2023/12/21 10:01:07;;;;;;;1472.35;997.88;;;10.30;99.90;;;;;;5066578;28;20032;-81
2023/12/21 10:03:33;;;;;;;1542.75;999.90;;;10.00;99.90;;;;;;5065100;28;20063;-81
2023/12/21 10:06:00;;;;;;;1456.95;995.38;;;10.00;99.90;;;;;;5066108;28;20036;-81
2023/12/21 10:08:26;;;;;;;1790.97;999.90;;;10.00;99.90;;;;;;5083428;28;20028;-81
2023/12/21 10:10:54;;;;;;;1542.55;999.90;;;10.10;99.90;;;;;;5084286;28;20578;-82
2023/12/21 10:13:21;;;;;;;1359.15;992.22;;;10.10;99.90;;;;;;5065992;28;20036;-81
2023/12/21 10:15:57;;;;;;;1306.60;997.53;;;10.10;99.90;;;;;;5083461;28;20044;-81
2023/12/21 10:18:23;;;;;;;1476.22;999.10;;;10.10;99.90;;;;;;5076266;28;20036;-81
2023/12/21 10:20:49;;;;;;;1392.03;993.22;;;11.00;99.90;;;;;;5083426;28;20048;-81
2023/12/21 10:23:14;;;;;;;1269.40;990.30;;;10.10;99.90;;;;;;5066469;28;20037;-81
2023/12/21 10:25:44;;;;;;;1299.75;987.67;;;11.10;99.90;;;;;;5082056;28;20105;-81
2023/12/21 10:28:10;;;;;;;1834.47;993.63;;;10.20;99.90;;;;;;5065612;28;20520;-81
2023/12/21 10:30:36;;;;;;;1590.32;992.47;;;10.20;99.90;;;;;;5074829;28;20036;-81
2023/12/21 10:33:01;;;;;;;1281.38;976.55;;;10.40;99.90;;;;;;5069969;28;20117;-83
2023/12/21 10:35:28;;;;;;;1254.70;989.83;;;10.20;99.90;;;;;;5076643;28;20104;-81
2023/12/21 10:37:54;;;;;;;1191.63;961.63;;;10.20;99.90;;;;;;5069203;28;20037;-81
2023/12/21 10:40:22;;;;;;;1233.15;936.38;;;11.30;99.90;;;;;;5083667;28;20205;-81
2023/12/21 10:42:54;;;;;;;1176.20;959.35;;;10.90;99.90;;;;;;5066826;28;20060;-81
2023/12/21 10:45:19;;;;;;;1196.75;976.35;;;10.20;99.90;;;;;;5066027;28;20032;-81
2023/12/21 10:47:52;;;;;;;1144.57;956.72;;;10.70;99.90;;;;;;5066731;28;20136;-81
2023/12/21 10:50:19;;;;;;;1091.40;946.17;;;10.40;99.90;;;;;;5082399;28;20051;-81
2023/12/21 10:52:49;;;;;;;1066.15;947.83;;;10.40;99.90;;;;;;5066064;28;20025;-81
2023/12/21 10:55:15;;;;;;;1243.95;975.55;;;10.70;99.90;;;;;;5065773;28;20071;-81
2023/12/21 10:57:42;;;;;;;1036.93;919.58;;;10.30;99.90;;;;;;5082210;28;20091;-81
2023/12/21 11:00:15;;;;;;;1024.70;915.03;;;10.50;99.90;;;;;;5081844;28;20055;-80
2023/12/21 11:02:46;;;;;;;1086.75;927.53;;;10.40;99.90;;;;;;5058172;28;20097;-81
2023/12/21 11:05:19;;;;;;;1506.95;973.95;;;10.40;99.90;;;;;;5056961;28;20439;-81
2023/12/21 11:07:50;;;;;;;1581.60;945.58;;;10.40;99.90;;;;;;5075397;28;20036;-81
2023/12/21 11:10:18;;;;;;;1157.45;975.28;;;10.40;99.90;;;;;;5056609;28;20040;-81
2023/12/21 11:12:44;;;;;;;1100.80;971.95;;;10.40;99.90;;;;;;5072947;28;20043;-80
2023/12/21 11:15:15;;;;;;;1019.13;909.10;;;10.40;99.90;;;;;;5055601;28;20119;-81
2023/12/21 11:17:43;;;;;;;1391.78;960.03;;;10.40;99.90;;;;;;5055832;28;20051;-81
2023/12/21 11:20:13;;;;;;;996.97;882.67;;;10.40;99.90;;;;;;5056346;28;20044;-81
2023/12/21 11:22:39;;;;;;;1999.90;983.25;;;10.40;99.90;;;;;;5073342;28;20064;-81
2023/12/21 11:25:08;;;;;;;1011.65;901.55;;;10.40;99.90;;;;;;5056530;28;20068;-81
2023/12/21 11:27:36;;;;;;;922.42;832.50;;;10.40;99.90;;;;;;5056739;28;20048;-81
2023/12/21 11:30:12;;;;;;;906.88;820.60;;;11.10;99.90;;;;;;5057280;28;20056;-81
2023/12/21 11:32:42;;;;;;;941.83;850.58;;;10.40;99.90;;;;;;5057036;28;20052;-81
2023/12/21 11:35:25;;;;;;;981.38;879.92;;;10.40;99.90;;;;;;5074792;28;20040;-81
2023/12/21 11:37:55;;;;;;;985.08;883.55;;;10.50;99.90;;;;;;5058530;28;20095;-81
2023/12/21 11:40:24;;;;;;;942.58;847.88;;;10.40;99.90;;;;;;5057854;28;20087;-81
2023/12/21 11:42:56;;;;;;;1003.50;898.70;;;10.40;99.90;;;;;;5056708;28;20223;-81
2023/12/21 11:45:29;;;;;;;1449.65;928.83;;;10.40;99.90;;;;;;5058400;28;20051;-81
2023/12/21 11:47:59;;;;;;;991.88;882.65;;;10.40;99.90;;;;;;5058713;28;20056;-81
2023/12/21 11:50:34;;;;;;;920.88;831.75;;;10.40;99.90;;;;;;5057668;28;20392;-81
2023/12/21 11:53:15;;;;;;;1044.72;908.33;;;10.40;99.90;;;;;;5056839;28;20045;-81
2023/12/21 11:55:43;;;;;;;874.88;794.22;;;10.40;99.90;;;;;;5053517;28;20389;-81
2023/12/21 11:58:23;;;;;;;891.85;803.38;;;10.50;99.90;;;;;;5069740;28;20059;-81
2023/12/21 12:00:50;;;;;;;887.05;804.47;;;10.90;99.90;;;;;;5071520;28;20044;-81
2023/12/21 12:03:16;;;;;;;793.60;718.58;;;10.40;99.90;;;;;;5057156;28;20033;-81